Main page
METAR-TAF:

METAR-TAF

Airports :

Menorca Airport

Minorca, Spain

latitude: 39-52N, longitude: 004-14E, elevation: 87 m

Current weather observation

The report was made 36 minutes ago, at 03:30 UTC
Wind 4 kt from the Northwest
Temperature 9°C
Humidity 87%
Pressure 1027 hPa
Visibility 10 km or more

METAR: LEMH 210330Z AUTO 32004KT 9999 FEW021/// 09/07 Q1027

Time: 05:06 (04:06 UTC)

Forecast

The report was made 2 hours and 6 minutes ago, at 02:00 UTC
Forecast valid from 21 at 03 UTC to 22 at 03 UTC
Wind 5 kt from the North
Visibility 10 km or more
Few clouds at a height of 1000 ft
Scattered clouds at a height of 2000 ft
Becoming
from 21 at 08 UTC to 21 at 10 UTC
Wind 12 kt from the North
Becoming
from 21 at 17 UTC to 21 at 19 UTC
Wind 5 kt from the Northwest

TAF: LEMH 210200Z 2103/2203 01005KT 9999 FEW010 SCT020 TX16/2113Z TN07/2106Z BECMG 2108/2110 01012KT BECMG 2117/2119 31005KT

Weather observations and forecasts of more than 4000 airports (METAR and TAF reports).

The available stations are represented by yellow and red dots on the map.

Hover mouse over dot to see the name of the station.

Then click to see weather observations and forecasts.

To change the map : click on the green buttons with a black cross to zoom in, on the green button with a dash to zoom out, or on the green arrows for adjacent maps.


METAR-TAF: